Bismarck, ND

1:58 PM CDT on September 26, 2016 (GMT -0500)
Linton Municipal Airport | | Change Station
Active Advisory: Frost Advisory

Elev 1778 ft 46.22 °N, 100.25 °W | Updated 23 minutes ago

Clear
Clear
66 °F
Feels Like 66 °F
N
23
Wind Variable Wind from NW
Gusts 30 mph

Today
High -- | Low -- °F
--% Chance of Precip.
Yesterday
High -- | Low -- °F
Precip. -- in
Pressure 30.14 in
Visibility 10.0 miles
Clouds Clear
Dew Point 37 °F
Humidity 35%
Rainfall 0.00 in
Snow Depth Not available.
7:35 AM 7:31 PM
Waning Crescent, 17% visible
METAR K7L2 261835Z AUTO 32020G26KT 10SM CLR 19/03 A3014 RMK AO2
Pressure 30.14 in
Visibility 10.0 miles
Clouds Clear
Dew Point 37 °F
Humidity 35%
Rainfall 0.00 in
Snow Depth Not available.
7:35 AM 7:31 PM
Waning Crescent, 17% visible
METAR K7L2 261835Z AUTO 32020G26KT 10SM CLR 19/03 A3014 RMK AO2

10-Day Weather Forecast

Almanac

Astronomy

Sep. 26, 2016 Rise Set
Actual Time
Civil Twilight
Nautical Twilight
Astronomical Twilight
Moon
Length of Visible Light
Length of Day
Tomorrow will be .
, % of the Moon is Illuminated

Today's Extremes

State Highs State Lows

Community

WunderPhotos

Upload Photos

1,941,951 photos uploaded!

WunderBlog® & News

Nearby

Air Quality

  Air Quality AQ Index Pollutant
Not available.

Snow Depth

Station Depth Elevation

Earthquake Activity

City Distance Mag. Time & Date
Minimum magnitude displayed is 2.5.

Coastal Water Temperatures

Place Temperature

Stations

Nearby Weather Stations

Station Location Temp. Windchill Dew Point Humidity Wind Precip. Elev Updated Type
                   

Watches & Warnings

Frost Advisory
Issued: 11:35 AM MDT Sep. 26, 2016 – National Weather Service

... Frost advisory in effect from 1 am CDT /midnight MDT/ to 8 am
CDT /7 am MDT/ Tuesday...

The National Weather Service in Bismarck has issued a frost
advisory... which is in effect from 1 am CDT /midnight MDT/ to
8 am CDT /7 am MDT/ Tuesday.

* Temperature... lows in the lower to mid 30s.

* Impacts... frost will kill or damage sensitive vegetation if left
uncovered.

Precautionary/preparedness actions...

A frost advisory means that widespread frost is expected.
Sensitive outdoor plants may be killed if left uncovered.



Pja